Time;durP1;ratioP1;P1;durP2;ratioP2;P2;SDS_P1;SDS_P2;PMS_P1;PMS_P2;Temp;Humidity;BMP_temperature;BMP_pressure;BME280_temperature;BME280_humidity;BME280_pressure;Samples;Min_cycle;Max_cycle;Signal;HPM_P1;HPM_P2
2022/11/20 00:00:44;;;;;;;26.25;14.70;;;-0.70;99.90;;;;;;5036358;28;20143;-85
2022/11/20 00:03:10;;;;;;;21.75;13.18;;;-0.20;99.90;;;;;;5053593;28;20041;-83
2022/11/20 00:05:35;;;;;;;26.80;14.90;;;-0.80;99.90;;;;;;5064682;28;20041;-83
2022/11/20 00:08:01;;;;;;;25.45;14.60;;;-0.90;99.90;;;;;;5058116;28;20044;-85
2022/11/20 00:10:27;;;;;;;24.48;14.52;;;-0.90;99.90;;;;;;5036618;28;20255;-85
2022/11/20 00:12:52;;;;;;;24.50;14.15;;;-0.80;99.90;;;;;;5033525;28;20073;-85
2022/11/20 00:15:18;;;;;;;26.63;15.05;;;-0.90;99.90;;;;;;5058900;28;20052;-83
2022/11/20 00:17:44;;;;;;;25.88;14.98;;;-0.80;99.90;;;;;;5077033;28;20045;-85
2022/11/20 00:20:10;;;;;;;25.13;14.68;;;-0.90;99.90;;;;;;5020370;28;20460;-83
2022/11/20 00:22:36;;;;;;;29.20;15.35;;;-0.90;99.90;;;;;;5037590;28;20049;-85
2022/11/20 00:25:01;;;;;;;25.98;14.65;;;-0.90;99.90;;;;;;5053362;28;20041;-85
2022/11/20 00:27:27;;;;;;;29.75;15.75;;;-0.80;99.90;;;;;;5036470;28;20033;-85
2022/11/20 00:29:53;;;;;;;26.88;14.85;;;-0.50;99.90;;;;;;5037046;28;20056;-85
2022/11/20 00:32:19;;;;;;;27.52;15.63;;;-0.80;99.90;;;;;;5020355;28;20389;-86
2022/11/20 00:34:44;;;;;;;32.70;16.90;;;-0.80;99.90;;;;;;5037193;28;20138;-85
2022/11/20 00:37:10;;;;;;;31.30;17.20;;;-0.70;99.90;;;;;;5053664;28;20080;-85
2022/11/20 00:39:36;;;;;;;30.85;16.73;;;-0.80;99.90;;;;;;5037367;28;20056;-86
2022/11/20 00:42:01;;;;;;;30.58;16.88;;;-0.70;99.90;;;;;;5038397;28;20060;-85
2022/11/20 00:44:27;;;;;;;30.60;16.92;;;-0.70;99.90;;;;;;5074382;28;20048;-85
2022/11/20 00:46:53;;;;;;;32.47;16.45;;;-0.40;99.90;;;;;;5040325;28;20045;-86
2022/11/20 00:49:18;;;;;;;32.97;15.88;;;0.10;99.90;;;;;;5039495;28;20083;-85
2022/11/20 00:51:44;;;;;;;28.02;16.00;;;-0.60;99.90;;;;;;5043826;28;20041;-84
2022/11/20 00:54:10;;;;;;;29.73;15.68;;;-0.70;99.90;;;;;;5056796;28;20071;-85
2022/11/20 00:56:35;;;;;;;27.15;15.13;;;-0.60;99.90;;;;;;5054929;28;20076;-86
2022/11/20 00:59:01;;;;;;;27.80;14.77;;;-0.30;99.90;;;;;;5037507;28;20056;-85
2022/11/20 01:01:28;;;;;;;26.10;14.88;;;-0.60;99.90;;;;;;5038590;28;20059;-84
2022/11/20 01:03:55;;;;;;;23.35;13.75;;;-0.30;99.90;;;;;;5056488;28;20063;-86
2022/11/20 01:06:23;;;;;;;24.42;14.25;;;1.00;99.90;;;;;;5056869;28;20056;-86
2022/11/20 01:08:50;;;;;;;25.52;14.43;;;-0.50;99.90;;;;;;5038371;28;20052;-86
2022/11/20 01:11:18;;;;;;;26.40;14.65;;;-0.50;99.90;;;;;;5038480;28;20049;-85
2022/11/20 01:13:44;;;;;;;23.05;14.00;;;-0.50;99.90;;;;;;5010223;28;20055;-85
2022/11/20 01:16:11;;;;;;;24.05;14.90;;;0.50;99.90;;;;;;5042014;28;20104;-82
2022/11/20 01:18:38;;;;;;;23.42;13.68;;;0.00;99.90;;;;;;5063494;28;20408;-83
2022/11/20 01:21:12;;;;;;;25.75;14.77;;;-0.50;99.90;;;;;;5038213;28;20041;-86
2022/11/20 01:23:39;;;;;;;26.50;14.88;;;-0.50;99.90;;;;;;5038688;28;20381;-86
2022/11/20 01:26:07;;;;;;;22.75;13.27;;;-0.50;99.90;;;;;;5051130;28;20408;-86
2022/11/20 01:28:32;;;;;;;22.75;13.88;;;0.80;99.90;;;;;;5047618;28;20130;-85
2022/11/20 01:30:58;;;;;;;24.17;14.77;;;0.80;99.90;;;;;;5038169;28;20116;-85
2022/11/20 01:33:24;;;;;;;23.35;13.77;;;-0.50;99.90;;;;;;5054618;28;20044;-85
2022/11/20 01:35:50;;;;;;;22.88;13.80;;;1.10;99.90;;;;;;5037645;28;20433;-85
2022/11/20 01:38:16;;;;;;;22.05;14.27;;;0.80;99.90;;;;;;5038986;28;20052;-86
2022/11/20 01:40:41;;;;;;;24.55;14.90;;;-0.50;99.90;;;;;;5071921;28;20075;-85
2022/11/20 01:43:23;;;;;;;21.50;13.30;;;-0.40;99.90;;;;;;5036648;28;20052;-85
2022/11/20 01:46:03;;;;;;;22.05;13.18;;;-0.50;99.90;;;;;;5060999;28;20088;-85
2022/11/20 01:49:03;;;;;;;23.92;13.55;;;-0.50;99.90;;;;;;5051650;28;20059;-86
2022/11/20 01:51:48;;;;;;;23.70;13.32;;;-0.50;99.90;;;;;;5057634;28;20060;-85
2022/11/20 01:54:24;;;;;;;21.80;13.98;;;-0.50;99.90;;;;;;5071629;28;20044;-85
2022/11/20 01:56:51;;;;;;;23.83;13.88;;;-0.50;99.90;;;;;;5069990;28;20056;-85
2022/11/20 01:59:18;;;;;;;26.05;14.73;;;-0.40;99.90;;;;;;5047322;28;20423;-85
2022/11/20 02:01:43;;;;;;;23.92;14.77;;;1.00;99.90;;;;;;5039768;28;20040;-85
2022/11/20 02:04:10;;;;;;;23.30;13.98;;;-0.30;99.90;;;;;;5056680;28;20052;-86
2022/11/20 02:06:59;;;;;;;21.77;14.07;;;0.80;99.90;;;;;;5059571;28;20045;-86
2022/11/20 02:09:25;;;;;;;23.80;14.85;;;-0.40;99.90;;;;;;5013735;28;20135;-84
2022/11/20 02:11:51;;;;;;;23.38;14.73;;;-0.40;99.90;;;;;;5044082;28;20132;-86
2022/11/20 02:14:17;;;;;;;23.52;14.57;;;-0.40;99.90;;;;;;5027079;28;20048;-85
2022/11/20 02:16:47;;;;;;;25.40;15.45;;;-0.40;99.90;;;;;;5063187;28;20106;-85
2022/11/20 02:19:26;;;;;;;23.65;14.55;;;1.10;99.90;;;;;;5086986;28;20048;-85
2022/11/20 02:22:10;;;;;;;26.95;15.77;;;-0.40;99.90;;;;;;5030159;28;20123;-85
2022/11/20 02:24:35;;;;;;;27.38;15.77;;;-0.40;99.90;;;;;;5047414;28;20062;-85
2022/11/20 02:27:10;;;;;;;25.55;16.02;;;-0.40;99.90;;;;;;5025378;28;20500;-85
2022/11/20 02:30:00;;;;;;;24.42;15.93;;;-0.40;99.90;;;;;;5029943;28;20054;-86
2022/11/20 02:32:27;;;;;;;26.45;15.95;;;-0.40;99.90;;;;;;5063880;28;20052;-82
2022/11/20 02:34:53;;;;;;;24.02;15.32;;;-0.40;99.90;;;;;;5048913;28;20082;-83
2022/11/20 02:37:19;;;;;;;27.02;16.80;;;0.70;99.90;;;;;;5058046;28;20060;-84
2022/11/20 02:39:45;;;;;;;27.27;16.40;;;-0.40;99.90;;;;;;5058846;28;20044;-86
2022/11/20 02:42:11;;;;;;;26.85;15.85;;;-0.30;99.90;;;;;;5074022;28;20491;-87
2022/11/20 02:44:37;;;;;;;29.42;17.77;;;0.00;99.90;;;;;;5057420;28;20072;-86
2022/11/20 02:47:02;;;;;;;26.55;16.67;;;-0.40;99.90;;;;;;5058851;28;20040;-85
2022/11/20 02:49:28;;;;;;;26.67;16.38;;;-0.30;99.90;;;;;;5061972;28;20308;-86
2022/11/20 02:51:54;;;;;;;26.38;16.13;;;-0.30;99.90;;;;;;5057778;28;20475;-86
2022/11/20 02:54:19;;;;;;;29.55;16.13;;;1.10;99.90;;;;;;5057025;28;20090;-85
2022/11/20 02:56:45;;;;;;;29.73;16.67;;;-0.30;99.90;;;;;;5057915;28;20265;-85
2022/11/20 02:59:11;;;;;;;27.70;16.63;;;0.20;99.90;;;;;;5040481;28;20068;-85
2022/11/20 03:01:36;;;;;;;24.58;15.77;;;-0.30;99.90;;;;;;5057116;28;20165;-84
2022/11/20 03:04:02;;;;;;;25.20;15.70;;;-0.30;99.90;;;;;;5056895;28;20526;-84
2022/11/20 03:06:28;;;;;;;26.10;16.33;;;-0.30;99.90;;;;;;5040484;28;20071;-86
2022/11/20 03:08:53;;;;;;;25.13;16.40;;;-0.30;99.90;;;;;;5025020;28;20048;-85
2022/11/20 03:11:19;;;;;;;26.58;16.52;;;-0.30;99.90;;;;;;5040518;28;20728;-85
2022/11/20 03:13:45;;;;;;;25.05;16.17;;;-0.30;99.90;;;;;;5057648;28;20127;-86
2022/11/20 03:16:13;;;;;;;27.48;16.13;;;0.10;99.90;;;;;;5057165;28;20040;-86
2022/11/20 03:18:39;;;;;;;25.40;14.95;;;0.40;99.90;;;;;;5041516;28;20070;-85
2022/11/20 03:21:05;;;;;;;24.52;15.48;;;-0.30;99.90;;;;;;5022719;28;20032;-86
2022/11/20 03:23:31;;;;;;;25.67;15.07;;;-0.30;99.90;;;;;;5041016;28;20075;-86
2022/11/20 03:26:17;;;;;;;25.88;16.10;;;-0.30;99.90;;;;;;5024774;28;20079;-86
2022/11/20 03:28:49;;;;;;;25.80;16.30;;;-0.30;99.90;;;;;;5041486;28;20044;-86
2022/11/20 03:31:15;;;;;;;26.60;16.92;;;-0.20;99.90;;;;;;5041813;28;20127;-86
2022/11/20 03:33:41;;;;;;;24.77;15.70;;;-0.30;99.90;;;;;;5041265;28;20119;-86
2022/11/20 03:36:09;;;;;;;26.45;15.90;;;-0.30;99.90;;;;;;5040926;28;20052;-85
2022/11/20 03:38:35;;;;;;;23.40;14.38;;;-0.20;99.90;;;;;;5040571;28;20561;-85
2022/11/20 03:41:05;;;;;;;22.67;15.05;;;0.50;99.90;;;;;;5060661;28;20053;-82
2022/11/20 03:43:31;;;;;;;22.83;15.02;;;-0.20;99.90;;;;;;5063509;28;20110;-82
2022/11/20 03:45:57;;;;;;;25.70;16.50;;;0.90;99.90;;;;;;5023561;28;20088;-84
2022/11/20 03:48:22;;;;;;;24.10;15.20;;;-0.10;99.90;;;;;;5041019;28;20048;-84
2022/11/20 03:50:48;;;;;;;24.05;15.40;;;-0.10;99.90;;;;;;5057549;28;20052;-86
2022/11/20 03:53:15;;;;;;;26.83;16.35;;;-0.10;99.90;;;;;;5074306;28;20060;-85
2022/11/20 03:55:41;;;;;;;22.83;14.63;;;-0.10;99.90;;;;;;5040506;28;20045;-85
2022/11/20 03:58:06;;;;;;;24.40;15.27;;;-0.10;99.90;;;;;;5039316;28;20136;-84
2022/11/20 04:00:32;;;;;;;25.65;15.95;;;0.10;99.90;;;;;;5057070;28;20048;-85
2022/11/20 04:02:59;;;;;;;24.40;15.13;;;-0.20;99.90;;;;;;5041118;28;20040;-86
2022/11/20 04:05:24;;;;;;;26.42;16.27;;;-0.20;99.90;;;;;;5056790;28;20052;-84
2022/11/20 04:07:50;;;;;;;25.98;16.42;;;0.40;99.90;;;;;;5056854;28;20094;-85
2022/11/20 04:10:16;;;;;;;29.23;16.88;;;-0.10;99.90;;;;;;5031862;28;20061;-85
2022/11/20 04:12:41;;;;;;;24.25;16.40;;;-0.10;99.90;;;;;;5056549;28;20131;-86
2022/11/20 04:15:07;;;;;;;23.85;16.13;;;-0.10;99.90;;;;;;5039887;28;20079;-84
2022/11/20 04:17:33;;;;;;;25.83;15.07;;;-0.10;99.90;;;;;;5023253;28;20047;-85
2022/11/20 04:19:59;;;;;;;26.05;15.75;;;-0.10;99.90;;;;;;5056721;28;20052;-85
2022/11/20 04:22:24;;;;;;;24.17;14.55;;;0.40;99.90;;;;;;5053564;28;20270;-86
2022/11/20 04:24:50;;;;;;;24.58;14.75;;;0.40;99.90;;;;;;5075990;28;20569;-85
2022/11/20 04:27:15;;;;;;;24.40;14.23;;;-0.10;99.90;;;;;;5055139;28;20052;-85
2022/11/20 04:29:41;;;;;;;22.33;13.68;;;1.20;99.90;;;;;;5042614;28;20041;-86
2022/11/20 04:32:07;;;;;;;20.58;13.30;;;-0.10;99.90;;;;;;5057003;28;20080;-86
2022/11/20 04:34:32;;;;;;;22.08;14.02;;;-0.10;99.90;;;;;;5040261;28;20049;-86
2022/11/20 04:36:58;;;;;;;22.13;13.90;;;-0.10;99.90;;;;;;5058089;28;20052;-86
2022/11/20 04:39:24;;;;;;;22.80;14.13;;;1.40;99.90;;;;;;5060130;28;20040;-86
2022/11/20 04:42:28;;;;;;;21.98;13.13;;;0.70;99.90;;;;;;5039100;28;20481;-85
2022/11/20 04:44:35;;;;;;;23.08;14.23;;;0.00;99.90;;;;;;5055348;28;20040;-86
2022/11/20 04:47:00;;;;;;;20.80;13.55;;;0.50;99.90;;;;;;5039429;28;20546;-86
2022/11/20 04:49:26;;;;;;;19.85;12.77;;;0.60;99.90;;;;;;5039165;28;20048;-86
2022/11/20 04:51:55;;;;;;;19.30;12.32;;;0.40;99.90;;;;;;5057062;28;20131;-85
2022/11/20 04:54:20;;;;;;;23.08;13.85;;;0.00;99.90;;;;;;5060946;28;20392;-82
2022/11/20 04:56:49;;;;;;;19.48;12.60;;;0.00;99.90;;;;;;5079600;28;20131;-84
2022/11/20 04:59:15;;;;;;;19.55;12.60;;;0.00;99.90;;;;;;5022593;28;20044;-85
2022/11/20 05:01:41;;;;;;;18.75;12.65;;;0.00;99.90;;;;;;5038719;28;20071;-85
2022/11/20 05:04:06;;;;;;;20.65;12.95;;;0.00;99.90;;;;;;5038974;28;20048;-85
2022/11/20 05:06:32;;;;;;;20.52;12.63;;;0.00;99.90;;;;;;5073727;28;20044;-86
2022/11/20 05:08:58;;;;;;;17.85;12.40;;;0.50;99.90;;;;;;5039612;28;20131;-86
2022/11/20 05:11:24;;;;;;;18.17;11.68;;;0.10;99.90;;;;;;5055248;28;20095;-86
2022/11/20 05:13:50;;;;;;;18.50;11.88;;;0.00;99.90;;;;;;5039817;28;20048;-86
2022/11/20 05:16:18;;;;;;;18.23;12.05;;;0.00;99.90;;;;;;5055017;28;20051;-84
2022/11/20 05:18:43;;;;;;;17.42;12.13;;;1.40;99.90;;;;;;5038557;28;20052;-86
2022/11/20 05:21:09;;;;;;;19.08;11.90;;;0.10;99.90;;;;;;5055029;28;20542;-86
2022/11/20 05:23:35;;;;;;;19.30;12.27;;;0.40;99.90;;;;;;5038141;28;20150;-85
2022/11/20 05:26:01;;;;;;;19.75;12.13;;;0.10;99.90;;;;;;5071572;28;20092;-83
2022/11/20 05:28:27;;;;;;;19.00;11.95;;;0.10;99.90;;;;;;5038144;28;20052;-84
2022/11/20 05:30:53;;;;;;;20.88;11.98;;;0.10;99.90;;;;;;5054854;28;20101;-85
2022/11/20 05:33:19;;;;;;;17.10;11.13;;;1.30;99.90;;;;;;5054657;28;20033;-85
2022/11/20 05:35:44;;;;;;;19.35;12.00;;;0.10;99.90;;;;;;5038105;28;20040;-85
2022/11/20 05:38:10;;;;;;;18.35;12.18;;;0.10;99.90;;;;;;5054364;28;20534;-86
2022/11/20 05:40:36;;;;;;;18.77;12.20;;;0.10;99.90;;;;;;5037759;28;20052;-85
2022/11/20 05:43:01;;;;;;;18.95;12.52;;;0.10;99.90;;;;;;5037816;28;20052;-85
2022/11/20 05:45:27;;;;;;;22.42;13.32;;;0.10;99.90;;;;;;5053840;28;20182;-85
2022/11/20 05:47:53;;;;;;;18.95;11.95;;;1.00;99.90;;;;;;5038346;28;20048;-86
2022/11/20 05:50:18;;;;;;;19.80;11.82;;;0.10;99.90;;;;;;5071143;28;20044;-85
2022/11/20 05:52:44;;;;;;;20.05;12.25;;;1.40;99.90;;;;;;5037928;28;20048;-85
2022/11/20 05:55:10;;;;;;;18.92;11.32;;;0.10;99.90;;;;;;5055206;28;20048;-86
2022/11/20 05:57:35;;;;;;;21.33;12.85;;;0.10;99.90;;;;;;5072358;28;20045;-86
2022/11/20 06:00:02;;;;;;;23.17;12.90;;;0.10;99.90;;;;;;5055155;28;20049;-86
2022/11/20 06:02:27;;;;;;;19.65;12.70;;;0.10;99.90;;;;;;5021353;28;20080;-85
2022/11/20 06:04:53;;;;;;;22.20;12.48;;;0.60;99.90;;;;;;5038217;28;20079;-86
2022/11/20 06:07:19;;;;;;;18.85;11.85;;;0.50;99.90;;;;;;5058448;28;20044;-83
2022/11/20 06:09:44;;;;;;;19.92;11.65;;;0.10;99.90;;;;;;5059827;28;20110;-85
2022/11/20 06:12:10;;;;;;;19.17;11.88;;;0.70;99.90;;;;;;5037223;28;20040;-84
2022/11/20 06:14:36;;;;;;;19.98;12.18;;;0.10;99.90;;;;;;5053684;28;20385;-85
2022/11/20 06:17:01;;;;;;;20.73;12.35;;;0.10;99.90;;;;;;5054099;28;20044;-86
2022/11/20 06:19:27;;;;;;;22.00;11.77;;;0.10;99.90;;;;;;5036993;28;20053;-85
2022/11/20 06:21:52;;;;;;;19.60;11.93;;;0.10;99.90;;;;;;5072706;28;20048;-86
2022/11/20 06:24:18;;;;;;;20.13;12.40;;;0.80;99.90;;;;;;5078446;28;20166;-86
2022/11/20 06:26:44;;;;;;;18.13;10.88;;;0.10;99.90;;;;;;5044090;28;20430;-86
2022/11/20 06:29:09;;;;;;;17.38;11.68;;;1.30;99.90;;;;;;5054392;28;20535;-83
2022/11/20 06:31:37;;;;;;;17.95;11.65;;;0.20;99.90;;;;;;5037317;28;20040;-85
2022/11/20 06:34:04;;;;;;;18.85;11.52;;;0.20;99.90;;;;;;5054156;28;20049;-86
2022/11/20 06:36:30;;;;;;;17.77;11.82;;;0.20;99.90;;;;;;5037099;28;20060;-85
2022/11/20 06:38:55;;;;;;;17.15;10.95;;;0.10;99.90;;;;;;5021357;28;20090;-86
2022/11/20 06:41:21;;;;;;;16.35;11.05;;;0.40;99.90;;;;;;5036940;28;20032;-86
2022/11/20 06:43:47;;;;;;;14.23;9.50;;;0.10;99.90;;;;;;5039610;28;20048;-86
2022/11/20 06:46:13;;;;;;;15.98;10.40;;;0.20;99.90;;;;;;5036741;28;20045;-85
2022/11/20 06:48:38;;;;;;;16.45;11.05;;;0.20;99.90;;;;;;5036926;28;20045;-85
2022/11/20 06:51:10;;;;;;;14.38;9.57;;;0.20;99.90;;;;;;5073827;28;20493;-84
2022/11/20 06:53:36;;;;;;;14.85;9.93;;;0.20;99.90;;;;;;5057145;28;20416;-84
2022/11/20 06:56:02;;;;;;;14.20;9.27;;;0.40;99.90;;;;;;5040773;28;20105;-86
2022/11/20 06:58:28;;;;;;;15.13;10.68;;;0.20;99.90;;;;;;5024239;28;20127;-85
2022/11/20 07:00:58;;;;;;;17.05;10.40;;;0.30;99.90;;;;;;5043310;28;20053;-85
2022/11/20 07:03:23;;;;;;;13.48;9.32;;;0.30;99.90;;;;;;5059527;28;20101;-85
2022/11/20 07:05:49;;;;;;;15.20;10.23;;;0.30;99.90;;;;;;5073450;28;20048;-86
2022/11/20 07:08:15;;;;;;;18.30;10.77;;;0.60;99.90;;;;;;5057496;28;20133;-84
2022/11/20 07:10:40;;;;;;;15.07;11.30;;;1.70;99.90;;;;;;5057601;28;20435;-85
2022/11/20 07:13:06;;;;;;;15.55;9.65;;;0.40;99.90;;;;;;5075779;28;20105;-86
2022/11/20 07:15:32;;;;;;;18.08;9.88;;;0.30;99.90;;;;;;5023863;28;20040;-86
2022/11/20 07:18:01;;;;;;;16.48;10.43;;;0.30;99.90;;;;;;5024348;28;20396;-85
2022/11/20 07:20:27;;;;;;;15.70;10.48;;;0.30;99.90;;;;;;5043510;28;20053;-82
2022/11/20 07:22:56;;;;;;;17.65;10.70;;;0.30;99.90;;;;;;5044704;28;20044;-83
2022/11/20 07:25:23;;;;;;;15.73;10.32;;;0.30;99.90;;;;;;5024018;28;20055;-85
2022/11/20 07:27:48;;;;;;;16.10;10.43;;;1.60;99.90;;;;;;5039504;28;20427;-84
2022/11/20 07:30:15;;;;;;;18.33;10.77;;;0.50;99.90;;;;;;5007786;28;20078;-85
2022/11/20 07:32:41;;;;;;;16.90;10.30;;;0.30;99.90;;;;;;5023507;28;20058;-86
2022/11/20 07:35:06;;;;;;;15.93;10.27;;;0.30;99.90;;;;;;5039621;28;20071;-85
2022/11/20 07:37:35;;;;;;;14.75;10.07;;;0.30;99.90;;;;;;5056925;28;20131;-86
2022/11/20 07:40:01;;;;;;;15.45;9.93;;;0.30;99.90;;;;;;5039883;28;20055;-86
2022/11/20 07:42:27;;;;;;;16.20;10.15;;;0.30;99.90;;;;;;5037296;28;20136;-86
2022/11/20 07:44:52;;;;;;;14.10;9.45;;;0.40;99.90;;;;;;5020168;28;20495;-86
2022/11/20 07:47:18;;;;;;;14.15;9.73;;;0.30;99.90;;;;;;5037099;28;20045;-86
2022/11/20 07:49:50;;;;;;;14.15;9.80;;;0.40;99.90;;;;;;5037865;28;20048;-85
2022/11/20 07:52:15;;;;;;;13.27;8.93;;;0.50;99.90;;;;;;5036735;28;20124;-85
2022/11/20 07:54:41;;;;;;;15.65;9.95;;;0.70;99.90;;;;;;5036177;28;20055;-85
2022/11/20 07:57:07;;;;;;;14.35;9.05;;;0.90;99.90;;;;;;5020030;28;20055;-84
2022/11/20 07:59:32;;;;;;;15.68;10.00;;;0.50;99.90;;;;;;5036211;28;20071;-84
2022/11/20 08:01:58;;;;;;;14.02;9.55;;;1.00;99.90;;;;;;5042761;28;20056;-85
2022/11/20 08:04:24;;;;;;;16.40;9.73;;;0.40;99.90;;;;;;5054175;28;20040;-85
2022/11/20 08:06:51;;;;;;;14.05;9.50;;;0.50;99.90;;;;;;5045364;28;20398;-86
2022/11/20 08:09:17;;;;;;;14.35;9.48;;;0.50;99.90;;;;;;5024427;28;20045;-85
2022/11/20 08:14:27;;;;;;;15.50;9.77;;;0.50;99.90;;;;;;5030928;28;20048;-87
2022/11/20 08:16:53;;;;;;;15.90;10.30;;;0.50;99.90;;;;;;4999880;28;20164;-86
2022/11/20 08:19:19;;;;;;;17.25;10.25;;;0.60;99.90;;;;;;5033228;28;20107;-85
2022/11/20 08:21:44;;;;;;;14.30;9.32;;;0.60;99.90;;;;;;5037767;28;20038;-85
2022/11/20 08:24:10;;;;;;;15.23;9.27;;;0.60;99.90;;;;;;5048828;28;20070;-83
2022/11/20 08:26:36;;;;;;;14.40;10.13;;;2.00;99.90;;;;;;5027770;28;20076;-86
2022/11/20 08:29:02;;;;;;;12.48;9.30;;;0.60;99.90;;;;;;5052181;28;20045;-85
2022/11/20 08:31:28;;;;;;;16.65;10.32;;;0.60;99.90;;;;;;5035574;28;20060;-86
2022/11/20 08:33:54;;;;;;;16.05;10.20;;;0.60;99.90;;;;;;5056835;28;20057;-84
2022/11/20 08:36:20;;;;;;;15.23;10.25;;;1.00;99.90;;;;;;5023632;28;20103;-84
2022/11/20 08:38:49;;;;;;;14.02;9.10;;;0.60;99.90;;;;;;5020525;28;20095;-87
2022/11/20 08:41:28;;;;;;;13.82;9.43;;;0.70;99.90;;;;;;5029113;28;20049;-86
2022/11/20 08:43:54;;;;;;;15.23;10.10;;;1.70;99.90;;;;;;5041828;28;20076;-87
2022/11/20 08:46:20;;;;;;;14.65;10.32;;;0.60;99.90;;;;;;5066990;28;20431;-87
2022/11/20 08:48:46;;;;;;;15.85;9.80;;;0.70;99.90;;;;;;5046121;28;20044;-84
2022/11/20 08:51:12;;;;;;;15.82;10.43;;;1.60;99.90;;;;;;5022675;28;20056;-88
2022/11/20 08:53:38;;;;;;;16.17;9.45;;;2.20;99.90;;;;;;5017727;28;20083;-88
2022/11/20 08:56:04;;;;;;;12.98;9.52;;;0.70;99.90;;;;;;5034829;28;20049;-85
2022/11/20 08:58:30;;;;;;;13.43;9.32;;;0.80;99.90;;;;;;5042674;28;20041;-86
2022/11/20 09:00:56;;;;;;;12.07;8.55;;;0.80;99.90;;;;;;5045142;28;20516;-85
2022/11/20 09:03:21;;;;;;;15.73;9.50;;;0.80;99.90;;;;;;5030932;28;20053;-87
2022/11/20 09:05:47;;;;;;;14.45;8.93;;;1.70;99.90;;;;;;5050749;28;20043;-86
2022/11/20 09:08:13;;;;;;;13.45;9.57;;;0.80;99.90;;;;;;5049525;28;20570;-85
2022/11/20 09:10:39;;;;;;;13.98;9.68;;;1.00;99.90;;;;;;5039101;28;20048;-87
2022/11/20 09:13:05;;;;;;;15.60;9.77;;;1.10;99.90;;;;;;5053221;28;20370;-88
2022/11/20 09:15:31;;;;;;;14.57;9.68;;;0.90;99.90;;;;;;5025358;28;20548;-88
2022/11/20 09:18:01;;;;;;;17.15;10.30;;;0.90;99.90;;;;;;5035578;28;20439;-86
2022/11/20 09:20:28;;;;;;;14.25;9.05;;;0.90;99.90;;;;;;5017994;28;20095;-87
2022/11/20 09:22:54;;;;;;;14.38;8.82;;;0.90;99.90;;;;;;5013682;28;20044;-87
2022/11/20 09:25:20;;;;;;;18.77;9.88;;;1.00;99.90;;;;;;5037355;28;20106;-85
2022/11/20 09:27:45;;;;;;;14.40;9.20;;;1.00;99.90;;;;;;5037801;28;20048;-85
2022/11/20 09:30:12;;;;;;;15.90;10.00;;;1.20;99.90;;;;;;5048248;28;20041;-87
2022/11/20 09:32:42;;;;;;;14.23;9.48;;;1.00;99.90;;;;;;5036069;28;20132;-84
2022/11/20 09:35:08;;;;;;;11.98;8.35;;;1.00;99.90;;;;;;5052500;28;20052;-85
2022/11/20 09:37:34;;;;;;;12.60;8.60;;;1.10;99.90;;;;;;5055509;28;20052;-86
2022/11/20 09:40:00;;;;;;;13.38;8.80;;;1.10;99.90;;;;;;5053252;28;20072;-85
2022/11/20 09:42:45;;;;;;;13.25;8.70;;;1.20;99.90;;;;;;5030492;28;20080;-86
2022/11/20 09:45:25;;;;;;;13.15;9.10;;;2.30;99.90;;;;;;5021779;28;20091;-84
2022/11/20 09:48:13;;;;;;;11.90;8.00;;;1.30;99.90;;;;;;5050944;28;20090;-84
2022/11/20 09:50:49;;;;;;;11.70;8.30;;;1.40;99.90;;;;;;5033407;28;20045;-84
2022/11/20 09:53:18;;;;;;;12.02;8.27;;;1.50;99.90;;;;;;5034284;28;20049;-85
2022/11/20 09:55:43;;;;;;;11.93;8.48;;;1.50;99.90;;;;;;5054602;28;20104;-86
2022/11/20 09:58:32;;;;;;;11.80;8.48;;;1.50;99.90;;;;;;5053613;28;20397;-85
2022/11/20 10:01:03;;;;;;;12.07;8.30;;;1.60;99.90;;;;;;5034539;28;20393;-85
2022/11/20 10:03:59;;;;;;;12.77;8.77;;;1.70;99.90;;;;;;5021090;28;20041;-87
2022/11/20 10:06:57;;;;;;;14.05;9.00;;;1.70;99.90;;;;;;5043281;28;20052;-86
2022/11/20 10:09:30;;;;;;;11.43;7.93;;;1.80;99.90;;;;;;5056597;28;20048;-85
2022/11/20 10:12:18;;;;;;;10.48;7.43;;;1.90;99.90;;;;;;5035463;28;20085;-85
2022/11/20 10:15:07;;;;;;;10.23;7.93;;;1.90;99.90;;;;;;5049873;28;20094;-85
2022/11/20 10:17:39;;;;;;;11.27;8.30;;;1.90;99.90;;;;;;5036979;28;20036;-86
2022/11/20 10:20:27;;;;;;;11.77;8.35;;;2.70;99.90;;;;;;5068379;28;20041;-85
2022/11/20 10:23:04;;;;;;;10.48;7.60;;;2.10;99.90;;;;;;5027269;28;20052;-86
2022/11/20 10:25:41;;;;;;;12.05;8.38;;;2.00;99.90;;;;;;5038780;28;20045;-85
2022/11/20 10:28:14;;;;;;;11.38;7.80;;;2.10;99.90;;;;;;5013032;28;20522;-87
2022/11/20 10:30:42;;;;;;;10.38;7.43;;;3.10;99.90;;;;;;5056902;28;20426;-87
2022/11/20 10:33:19;;;;;;;11.90;7.72;;;2.20;99.90;;;;;;5036852;28;20052;-84
2022/11/20 10:35:52;;;;;;;11.23;7.70;;;2.30;99.90;;;;;;5020036;28;20036;-84
2022/11/20 10:38:26;;;;;;;12.48;8.02;;;2.30;99.90;;;;;;5049598;28;20106;-85
2022/11/20 10:43:44;;;;;;;10.13;7.82;;;2.50;99.90;;;;;;5038608;28;20504;-84
2022/11/20 10:46:22;;;;;;;10.65;7.25;;;2.60;99.90;;;;;;5022051;28;20056;-87
2022/11/20 10:48:47;;;;;;;10.65;7.28;;;3.00;99.90;;;;;;5037244;28;20494;-85
2022/11/20 10:51:37;;;;;;;10.25;7.57;;;2.60;99.90;;;;;;5017787;28;20049;-86
2022/11/20 10:54:33;;;;;;;10.18;7.47;;;2.60;99.90;;;;;;5034367;28;20498;-88
2022/11/20 10:57:15;;;;;;;10.57;7.38;;;2.60;99.90;;;;;;5035876;28;20060;-83
2022/11/20 11:00:01;;;;;;;11.13;7.28;;;2.70;99.90;;;;;;5038742;28;20044;-86
2022/11/20 11:02:46;;;;;;;10.60;7.22;;;2.70;99.90;;;;;;5035748;28;20087;-88
2022/11/20 11:05:15;;;;;;;11.55;7.15;;;2.80;99.90;;;;;;5066847;28;20076;-87
2022/11/20 11:07:40;;;;;;;8.32;6.38;;;3.50;99.90;;;;;;5032120;28;20101;-87
2022/11/20 11:10:32;;;;;;;9.05;6.50;;;2.80;99.90;;;;;;5034221;28;20053;-87
2022/11/20 11:12:57;;;;;;;9.18;6.30;;;2.90;99.90;;;;;;5051351;28;20068;-87
2022/11/20 11:15:30;;;;;;;10.15;7.38;;;2.90;99.90;;;;;;5034744;28;20619;-89
2022/11/20 11:17:55;;;;;;;8.38;6.55;;;2.90;99.90;;;;;;5033252;28;20040;-89
2022/11/20 11:20:22;;;;;;;7.63;5.63;;;4.00;99.90;;;;;;5038278;28;20139;-90
2022/11/20 11:22:50;;;;;;;7.32;5.38;;;2.90;99.90;;;;;;5038920;28;20106;-90
2022/11/20 11:25:34;;;;;;;8.40;6.38;;;2.90;99.90;;;;;;5020828;28;20086;-87
2022/11/20 11:28:27;;;;;;;8.50;6.28;;;2.80;99.90;;;;;;5025503;28;20048;-88
2022/11/20 11:30:53;;;;;;;7.88;6.15;;;2.70;99.90;;;;;;5040257;28;20053;-89
2022/11/20 11:33:21;;;;;;;8.45;5.60;;;2.70;99.90;;;;;;5036353;28;20037;-90
2022/11/20 11:35:52;;;;;;;8.55;6.18;;;2.70;99.90;;;;;;5020820;28;20060;-87
2022/11/20 11:38:38;;;;;;;8.10;5.60;;;2.70;99.90;;;;;;5039266;28;20151;-87
2022/11/20 11:41:05;;;;;;;8.00;5.97;;;2.70;99.90;;;;;;5014562;28;20068;-88
2022/11/20 11:46:33;;;;;;;7.95;5.65;;;2.90;99.90;;;;;;5043887;28;20067;-89
2022/11/20 11:49:09;;;;;;;8.48;5.93;;;2.80;99.90;;;;;;5029144;28;20404;-85
2022/11/20 11:51:56;;;;;;;6.93;5.70;;;2.90;99.90;;;;;;5047121;28;20053;-86
2022/11/20 11:54:47;;;;;;;6.82;5.50;;;2.90;99.90;;;;;;5030546;28;20095;-84
2022/11/20 11:57:34;;;;;;;8.70;5.88;;;2.80;99.90;;;;;;5021836;28;20044;-87
2022/11/20 12:00:03;;;;;;;8.40;6.55;;;2.80;99.90;;;;;;5087278;28;20042;-86
2022/11/20 12:02:49;;;;;;;8.75;6.28;;;2.80;99.90;;;;;;5026900;28;20133;-87
2022/11/20 12:05:28;;;;;;;7.93;6.30;;;3.50;99.90;;;;;;5037080;28;20045;-88
2022/11/20 12:08:17;;;;;;;8.85;6.95;;;2.80;99.90;;;;;;5037999;28;20060;-86
2022/11/20 12:10:50;;;;;;;7.72;5.65;;;2.80;99.90;;;;;;5034304;28;20072;-83
2022/11/20 12:13:32;;;;;;;10.07;6.03;;;2.80;99.90;;;;;;5033181;28;20071;-86
2022/11/20 12:15:58;;;;;;;7.82;5.45;;;2.70;99.90;;;;;;5050647;28;20095;-86
2022/11/20 12:18:23;;;;;;;9.20;6.03;;;2.70;99.90;;;;;;5029795;28;20044;-87
2022/11/20 12:21:01;;;;;;;9.25;5.93;;;4.00;99.90;;;;;;5043742;28;20044;-86
2022/11/20 12:23:52;;;;;;;11.10;7.22;;;2.70;99.90;;;;;;5052839;28;20045;-86
2022/11/20 12:26:51;;;;;;;9.63;6.90;;;2.70;99.90;;;;;;5036147;28;20068;-87
2022/11/20 12:29:55;;;;;;;8.80;6.53;;;2.70;99.90;;;;;;5034241;28;20052;-88
2022/11/20 12:32:55;;;;;;;10.43;6.95;;;2.70;99.90;;;;;;5053078;28;20049;-88
2022/11/20 12:35:33;;;;;;;9.60;6.93;;;2.80;99.90;;;;;;5023420;28;20040;-84
2022/11/20 12:38:20;;;;;;;9.32;6.90;;;2.90;99.90;;;;;;5034049;28;20052;-87
2022/11/20 12:47:47;;;;;;;9.70;6.40;;;3.00;99.90;;;;;;5048260;28;20500;-83
2022/11/20 12:50:23;;;;;;;9.02;6.95;;;3.00;99.90;;;;;;5034174;28;20374;-85
2022/11/20 12:53:08;;;;;;;8.82;6.85;;;2.90;99.90;;;;;;5035333;28;20142;-85
2022/11/20 12:55:58;;;;;;;8.50;6.50;;;2.90;99.90;;;;;;5047423;28;20672;-84
2022/11/20 12:59:10;;;;;;;10.07;6.80;;;2.90;99.90;;;;;;5042016;28;20132;-85
2022/11/20 13:01:40;;;;;;;8.77;6.53;;;2.90;99.90;;;;;;5029145;28;20075;-84
2022/11/20 13:04:14;;;;;;;11.52;6.97;;;4.30;99.90;;;;;;5015383;28;20135;-84
2022/11/20 13:06:42;;;;;;;10.40;7.53;;;2.80;99.90;;;;;;5046944;28;20206;-84